sensor_id;sensor_type;location;lat;lon;timestamp;temperature;humidity
32187;DHT22;18686;53.084;8.872;2024-01-07T00:00:50;1.00;99.90
32187;DHT22;18686;53.084;8.872;2024-01-07T00:03:18;1.00;99.90
32187;DHT22;18686;53.084;8.872;2024-01-07T00:05:47;0.90;99.90
32187;DHT22;18686;53.084;8.872;2024-01-07T00:08:16;0.90;99.90
32187;DHT22;18686;53.084;8.872;2024-01-07T00:10:44;0.90;99.90
32187;DHT22;18686;53.084;8.872;2024-01-07T00:13:13;1.00;99.90
32187;DHT22;18686;53.084;8.872;2024-01-07T00:15:41;1.00;99.90
32187;DHT22;18686;53.084;8.872;2024-01-07T00:18:10;1.00;99.90
32187;DHT22;18686;53.084;8.872;2024-01-07T00:20:39;1.00;99.90
32187;DHT22;18686;53.084;8.872;2024-01-07T00:23:11;1.00;99.90
32187;DHT22;18686;53.084;8.872;2024-01-07T00:25:41;1.00;99.90
32187;DHT22;18686;53.084;8.872;2024-01-07T00:28:09;1.10;99.90
32187;DHT22;18686;53.084;8.872;2024-01-07T00:30:37;1.10;99.90
32187;DHT22;18686;53.084;8.872;2024-01-07T00:33:06;1.00;99.90
32187;DHT22;18686;53.084;8.872;2024-01-07T00:35:34;1.00;99.90
32187;DHT22;18686;53.084;8.872;2024-01-07T00:38:02;1.00;99.90
32187;DHT22;18686;53.084;8.872;2024-01-07T00:40:31;1.00;99.90
32187;DHT22;18686;53.084;8.872;2024-01-07T00:43:00;1.00;99.90
32187;DHT22;18686;53.084;8.872;2024-01-07T00:45:28;1.00;99.90
32187;DHT22;18686;53.084;8.872;2024-01-07T00:47:57;1.00;99.90
32187;DHT22;18686;53.084;8.872;2024-01-07T00:50:25;0.90;99.90
32187;DHT22;18686;53.084;8.872;2024-01-07T00:52:53;0.90;99.90
32187;DHT22;18686;53.084;8.872;2024-01-07T00:55:22;0.90;99.90
32187;DHT22;18686;53.084;8.872;2024-01-07T00:57:50;0.80;99.90
32187;DHT22;18686;53.084;8.872;2024-01-07T01:00:21;0.80;99.90
32187;DHT22;18686;53.084;8.872;2024-01-07T01:02:49;0.80;99.90
32187;DHT22;18686;53.084;8.872;2024-01-07T01:05:17;0.80;99.90
32187;DHT22;18686;53.084;8.872;2024-01-07T01:07:46;0.70;99.90
32187;DHT22;18686;53.084;8.872;2024-01-07T01:10:15;0.70;99.90
32187;DHT22;18686;53.084;8.872;2024-01-07T01:12:44;0.60;99.90
32187;DHT22;18686;53.084;8.872;2024-01-07T01:15:13;0.60;99.90
32187;DHT22;18686;53.084;8.872;2024-01-07T01:17:44;0.50;99.90
32187;DHT22;18686;53.084;8.872;2024-01-07T01:20:13;0.50;99.90
32187;DHT22;18686;53.084;8.872;2024-01-07T01:22:41;0.50;99.90
32187;DHT22;18686;53.084;8.872;2024-01-07T01:25:10;0.50;99.90
32187;DHT22;18686;53.084;8.872;2024-01-07T01:27:39;0.50;99.90
32187;DHT22;18686;53.084;8.872;2024-01-07T01:30:08;0.50;99.90
32187;DHT22;18686;53.084;8.872;2024-01-07T01:32:37;0.40;99.90
32187;DHT22;18686;53.084;8.872;2024-01-07T01:35:07;0.40;99.90
32187;DHT22;18686;53.084;8.872;2024-01-07T01:37:36;0.40;99.90
32187;DHT22;18686;53.084;8.872;2024-01-07T01:40:05;0.40;99.90
32187;DHT22;18686;53.084;8.872;2024-01-07T01:42:34;0.40;99.90
32187;DHT22;18686;53.084;8.872;2024-01-07T01:45:03;0.40;99.90
32187;DHT22;18686;53.084;8.872;2024-01-07T01:47:31;0.30;99.90
32187;DHT22;18686;53.084;8.872;2024-01-07T01:50:00;0.30;99.90
32187;DHT22;18686;53.084;8.872;2024-01-07T01:52:30;0.30;99.90
32187;DHT22;18686;53.084;8.872;2024-01-07T01:54:58;0.40;99.90
32187;DHT22;18686;53.084;8.872;2024-01-07T01:57:32;0.30;99.90
32187;DHT22;18686;53.084;8.872;2024-01-07T02:00:02;0.30;99.90
32187;DHT22;18686;53.084;8.872;2024-01-07T02:02:32;0.30;99.90
32187;DHT22;18686;53.084;8.872;2024-01-07T02:05:02;0.30;99.90
32187;DHT22;18686;53.084;8.872;2024-01-07T02:07:31;0.30;99.90
32187;DHT22;18686;53.084;8.872;2024-01-07T02:10:00;0.30;99.90
32187;DHT22;18686;53.084;8.872;2024-01-07T02:12:28;0.30;99.90
32187;DHT22;18686;53.084;8.872;2024-01-07T02:14:57;0.30;99.90
32187;DHT22;18686;53.084;8.872;2024-01-07T02:17:25;0.30;99.90
32187;DHT22;18686;53.084;8.872;2024-01-07T02:19:54;0.30;99.90
32187;DHT22;18686;53.084;8.872;2024-01-07T02:22:22;0.30;99.90
32187;DHT22;18686;53.084;8.872;2024-01-07T02:24:52;0.30;99.90
32187;DHT22;18686;53.084;8.872;2024-01-07T02:27:21;0.30;99.90
32187;DHT22;18686;53.084;8.872;2024-01-07T02:29:49;0.30;99.90
32187;DHT22;18686;53.084;8.872;2024-01-07T02:32:17;0.30;99.90
32187;DHT22;18686;53.084;8.872;2024-01-07T02:34:45;0.30;99.90
32187;DHT22;18686;53.084;8.872;2024-01-07T02:37:14;0.30;99.90
32187;DHT22;18686;53.084;8.872;2024-01-07T02:39:43;0.30;99.90
32187;DHT22;18686;53.084;8.872;2024-01-07T02:42:23;0.30;99.90
32187;DHT22;18686;53.084;8.872;2024-01-07T02:44:51;0.30;99.90
32187;DHT22;18686;53.084;8.872;2024-01-07T02:47:20;0.20;99.90
32187;DHT22;18686;53.084;8.872;2024-01-07T02:49:48;0.30;99.90
32187;DHT22;18686;53.084;8.872;2024-01-07T02:52:16;0.30;99.90
32187;DHT22;18686;53.084;8.872;2024-01-07T02:54:46;0.30;99.90
32187;DHT22;18686;53.084;8.872;2024-01-07T02:57:14;0.30;99.90
32187;DHT22;18686;53.084;8.872;2024-01-07T02:59:44;0.30;99.90
32187;DHT22;18686;53.084;8.872;2024-01-07T03:02:12;0.30;99.90
32187;DHT22;18686;53.084;8.872;2024-01-07T03:04:40;0.30;99.90
32187;DHT22;18686;53.084;8.872;2024-01-07T03:07:08;0.30;99.90
32187;DHT22;18686;53.084;8.872;2024-01-07T03:09:37;0.30;99.90
32187;DHT22;18686;53.084;8.872;2024-01-07T03:12:05;0.30;99.90
32187;DHT22;18686;53.084;8.872;2024-01-07T03:14:34;0.40;99.90
32187;DHT22;18686;53.084;8.872;2024-01-07T03:17:04;0.40;99.90
32187;DHT22;18686;53.084;8.872;2024-01-07T03:19:33;0.40;99.90
32187;DHT22;18686;53.084;8.872;2024-01-07T03:22:01;0.40;99.90
32187;DHT22;18686;53.084;8.872;2024-01-07T03:24:30;0.40;99.90
32187;DHT22;18686;53.084;8.872;2024-01-07T03:26:58;0.40;99.90
32187;DHT22;18686;53.084;8.872;2024-01-07T03:29:26;0.40;99.90
32187;DHT22;18686;53.084;8.872;2024-01-07T03:31:54;0.40;99.90
32187;DHT22;18686;53.084;8.872;2024-01-07T03:34:24;0.40;99.90
32187;DHT22;18686;53.084;8.872;2024-01-07T03:36:52;0.40;99.90
32187;DHT22;18686;53.084;8.872;2024-01-07T03:39:20;0.40;99.90
32187;DHT22;18686;53.084;8.872;2024-01-07T03:41:48;0.40;99.90
32187;DHT22;18686;53.084;8.872;2024-01-07T03:44:17;0.30;99.90
32187;DHT22;18686;53.084;8.872;2024-01-07T03:46:45;0.30;99.90
32187;DHT22;18686;53.084;8.872;2024-01-07T03:49:13;0.30;99.90
32187;DHT22;18686;53.084;8.872;2024-01-07T03:51:43;0.30;99.90
32187;DHT22;18686;53.084;8.872;2024-01-07T03:54:11;0.40;99.90
32187;DHT22;18686;53.084;8.872;2024-01-07T03:56:39;0.30;99.90
32187;DHT22;18686;53.084;8.872;2024-01-07T03:59:08;0.30;99.90
32187;DHT22;18686;53.084;8.872;2024-01-07T04:01:36;0.30;99.90
32187;DHT22;18686;53.084;8.872;2024-01-07T04:04:04;0.30;99.90
32187;DHT22;18686;53.084;8.872;2024-01-07T04:06:32;0.30;99.90
32187;DHT22;18686;53.084;8.872;2024-01-07T04:09:02;0.30;99.90
32187;DHT22;18686;53.084;8.872;2024-01-07T04:11:31;0.30;99.90
32187;DHT22;18686;53.084;8.872;2024-01-07T04:13:59;0.30;99.90
32187;DHT22;18686;53.084;8.872;2024-01-07T04:16:27;0.30;99.90
32187;DHT22;18686;53.084;8.872;2024-01-07T04:18:55;0.30;99.90
32187;DHT22;18686;53.084;8.872;2024-01-07T04:21:23;0.30;99.90
32187;DHT22;18686;53.084;8.872;2024-01-07T04:23:52;0.30;99.90
32187;DHT22;18686;53.084;8.872;2024-01-07T04:26:21;0.30;99.90
32187;DHT22;18686;53.084;8.872;2024-01-07T04:28:49;0.30;99.90
32187;DHT22;18686;53.084;8.872;2024-01-07T04:31:18;0.30;99.90
32187;DHT22;18686;53.084;8.872;2024-01-07T04:33:46;0.40;99.90
32187;DHT22;18686;53.084;8.872;2024-01-07T04:36:15;0.30;99.90
32187;DHT22;18686;53.084;8.872;2024-01-07T04:38:43;0.20;99.90
32187;DHT22;18686;53.084;8.872;2024-01-07T04:41:11;0.20;99.90
32187;DHT22;18686;53.084;8.872;2024-01-07T04:43:42;0.20;99.90
32187;DHT22;18686;53.084;8.872;2024-01-07T04:46:11;0.20;99.90
32187;DHT22;18686;53.084;8.872;2024-01-07T04:48:39;0.10;99.90
32187;DHT22;18686;53.084;8.872;2024-01-07T04:51:07;0.10;99.90
32187;DHT22;18686;53.084;8.872;2024-01-07T04:53:36;0.10;99.90
32187;DHT22;18686;53.084;8.872;2024-01-07T04:56:06;0.00;99.90
32187;DHT22;18686;53.084;8.872;2024-01-07T04:58:34;0.00;99.90
32187;DHT22;18686;53.084;8.872;2024-01-07T05:01:04;0.00;99.90
32187;DHT22;18686;53.084;8.872;2024-01-07T05:03:32;-0.10;99.90
32187;DHT22;18686;53.084;8.872;2024-01-07T05:06:01;-0.10;99.90
32187;DHT22;18686;53.084;8.872;2024-01-07T05:08:30;-0.10;99.90
32187;DHT22;18686;53.084;8.872;2024-01-07T05:10:58;-0.10;99.90
32187;DHT22;18686;53.084;8.872;2024-01-07T05:13:26;-0.20;99.90
32187;DHT22;18686;53.084;8.872;2024-01-07T05:15:55;-0.20;99.90
32187;DHT22;18686;53.084;8.872;2024-01-07T05:18:24;-0.20;99.90
32187;DHT22;18686;53.084;8.872;2024-01-07T05:20:53;-0.30;99.90
32187;DHT22;18686;53.084;8.872;2024-01-07T05:23:21;-0.30;99.90
32187;DHT22;18686;53.084;8.872;2024-01-07T05:25:49;-0.30;99.90
32187;DHT22;18686;53.084;8.872;2024-01-07T05:28:18;-0.30;99.90
32187;DHT22;18686;53.084;8.872;2024-01-07T05:30:49;-0.30;99.90
32187;DHT22;18686;53.084;8.872;2024-01-07T05:33:18;-0.30;99.90
32187;DHT22;18686;53.084;8.872;2024-01-07T05:35:47;-0.30;99.90
32187;DHT22;18686;53.084;8.872;2024-01-07T05:38:16;-0.30;99.90
32187;DHT22;18686;53.084;8.872;2024-01-07T05:40:44;-0.30;99.90
32187;DHT22;18686;53.084;8.872;2024-01-07T05:43:12;-0.40;99.90
32187;DHT22;18686;53.084;8.872;2024-01-07T05:45:40;-0.40;99.90
32187;DHT22;18686;53.084;8.872;2024-01-07T05:48:09;-0.40;99.90
32187;DHT22;18686;53.084;8.872;2024-01-07T05:50:37;-0.40;99.90
32187;DHT22;18686;53.084;8.872;2024-01-07T05:53:07;-0.30;99.90
32187;DHT22;18686;53.084;8.872;2024-01-07T05:55:35;-0.30;99.90
32187;DHT22;18686;53.084;8.872;2024-01-07T05:58:04;-0.30;99.90
32187;DHT22;18686;53.084;8.872;2024-01-07T06:00:32;-0.20;99.90
32187;DHT22;18686;53.084;8.872;2024-01-07T06:03:00;-0.20;99.90
32187;DHT22;18686;53.084;8.872;2024-01-07T06:05:29;-0.20;99.90
32187;DHT22;18686;53.084;8.872;2024-01-07T06:07:57;-0.10;99.90
32187;DHT22;18686;53.084;8.872;2024-01-07T06:10:27;-0.10;99.90
32187;DHT22;18686;53.084;8.872;2024-01-07T06:12:56;-0.10;99.90
32187;DHT22;18686;53.084;8.872;2024-01-07T06:15:24;-0.10;99.90
32187;DHT22;18686;53.084;8.872;2024-01-07T06:17:52;0.00;99.90
32187;DHT22;18686;53.084;8.872;2024-01-07T06:20:21;0.00;99.90
32187;DHT22;18686;53.084;8.872;2024-01-07T06:22:50;0.00;99.90
32187;DHT22;18686;53.084;8.872;2024-01-07T06:25:18;0.00;99.90
32187;DHT22;18686;53.084;8.872;2024-01-07T06:27:48;0.00;99.90
32187;DHT22;18686;53.084;8.872;2024-01-07T06:30:17;0.10;99.90
32187;DHT22;18686;53.084;8.872;2024-01-07T06:32:46;0.10;99.90
32187;DHT22;18686;53.084;8.872;2024-01-07T06:35:15;0.10;99.90
32187;DHT22;18686;53.084;8.872;2024-01-07T06:37:43;0.10;99.90
32187;DHT22;18686;53.084;8.872;2024-01-07T06:40:12;0.10;99.90
32187;DHT22;18686;53.084;8.872;2024-01-07T06:42:40;0.20;99.90
32187;DHT22;18686;53.084;8.872;2024-01-07T06:45:12;0.20;99.90
32187;DHT22;18686;53.084;8.872;2024-01-07T06:47:41;0.20;99.90
32187;DHT22;18686;53.084;8.872;2024-01-07T06:50:09;0.20;99.90
32187;DHT22;18686;53.084;8.872;2024-01-07T06:52:38;0.20;99.90
32187;DHT22;18686;53.084;8.872;2024-01-07T06:55:06;0.20;99.90
32187;DHT22;18686;53.084;8.872;2024-01-07T06:57:35;0.20;99.90
32187;DHT22;18686;53.084;8.872;2024-01-07T07:00:04;0.20;99.90
32187;DHT22;18686;53.084;8.872;2024-01-07T07:02:34;0.20;99.90
32187;DHT22;18686;53.084;8.872;2024-01-07T07:05:02;0.20;99.90
32187;DHT22;18686;53.084;8.872;2024-01-07T07:07:30;0.20;99.90
32187;DHT22;18686;53.084;8.872;2024-01-07T07:09:59;0.20;99.90
32187;DHT22;18686;53.084;8.872;2024-01-07T07:12:27;0.20;99.90
32187;DHT22;18686;53.084;8.872;2024-01-07T07:14:56;0.20;99.90
32187;DHT22;18686;53.084;8.872;2024-01-07T07:17:24;0.20;99.90
32187;DHT22;18686;53.084;8.872;2024-01-07T07:19:53;0.20;99.90
32187;DHT22;18686;53.084;8.872;2024-01-07T07:22:22;0.20;99.90
32187;DHT22;18686;53.084;8.872;2024-01-07T07:24:50;0.30;99.90
32187;DHT22;18686;53.084;8.872;2024-01-07T07:27:18;0.30;99.90
32187;DHT22;18686;53.084;8.872;2024-01-07T07:29:46;0.30;99.90
32187;DHT22;18686;53.084;8.872;2024-01-07T07:32:15;0.30;99.90
32187;DHT22;18686;53.084;8.872;2024-01-07T07:34:43;0.30;99.90
32187;DHT22;18686;53.084;8.872;2024-01-07T07:37:13;0.40;99.90
32187;DHT22;18686;53.084;8.872;2024-01-07T07:39:44;0.40;99.90
32187;DHT22;18686;53.084;8.872;2024-01-07T07:42:12;0.40;99.90
32187;DHT22;18686;53.084;8.872;2024-01-07T07:44:40;0.40;99.90
32187;DHT22;18686;53.084;8.872;2024-01-07T07:47:09;0.40;99.90
32187;DHT22;18686;53.084;8.872;2024-01-07T07:49:38;0.50;99.90
32187;DHT22;18686;53.084;8.872;2024-01-07T07:52:08;0.50;99.90
32187;DHT22;18686;53.084;8.872;2024-01-07T07:54:38;0.50;99.90
32187;DHT22;18686;53.084;8.872;2024-01-07T07:57:06;0.60;99.90
32187;DHT22;18686;53.084;8.872;2024-01-07T07:59:35;0.60;99.90
32187;DHT22;18686;53.084;8.872;2024-01-07T08:02:03;0.60;99.90
32187;DHT22;18686;53.084;8.872;2024-01-07T08:04:33;0.60;99.90
32187;DHT22;18686;53.084;8.872;2024-01-07T08:07:02;0.60;99.90
32187;DHT22;18686;53.084;8.872;2024-01-07T08:09:30;0.60;99.90
32187;DHT22;18686;53.084;8.872;2024-01-07T08:12:00;0.60;99.90
32187;DHT22;18686;53.084;8.872;2024-01-07T08:14:28;0.60;99.90
32187;DHT22;18686;53.084;8.872;2024-01-07T08:16:58;0.70;99.90
32187;DHT22;18686;53.084;8.872;2024-01-07T08:19:26;0.70;99.90
32187;DHT22;18686;53.084;8.872;2024-01-07T08:21:54;0.70;99.90
32187;DHT22;18686;53.084;8.872;2024-01-07T08:24:23;0.80;99.90
32187;DHT22;18686;53.084;8.872;2024-01-07T08:26:52;0.80;99.90
32187;DHT22;18686;53.084;8.872;2024-01-07T08:29:22;0.90;99.90
32187;DHT22;18686;53.084;8.872;2024-01-07T08:31:51;0.90;99.90
32187;DHT22;18686;53.084;8.872;2024-01-07T08:34:19;1.00;99.90
32187;DHT22;18686;53.084;8.872;2024-01-07T08:36:47;1.00;99.90
32187;DHT22;18686;53.084;8.872;2024-01-07T08:39:16;1.00;99.90
32187;DHT22;18686;53.084;8.872;2024-01-07T08:41:44;1.10;99.90
32187;DHT22;18686;53.084;8.872;2024-01-07T08:44:13;1.10;99.90
32187;DHT22;18686;53.084;8.872;2024-01-07T08:46:43;1.10;99.90
32187;DHT22;18686;53.084;8.872;2024-01-07T08:49:12;1.20;99.90
32187;DHT22;18686;53.084;8.872;2024-01-07T08:51:41;1.20;99.90
32187;DHT22;18686;53.084;8.872;2024-01-07T08:54:09;1.30;99.90
32187;DHT22;18686;53.084;8.872;2024-01-07T08:56:38;1.30;99.90
32187;DHT22;18686;53.084;8.872;2024-01-07T08:59:06;1.30;99.90
32187;DHT22;18686;53.084;8.872;2024-01-07T09:01:35;1.40;99.90
32187;DHT22;18686;53.084;8.872;2024-01-07T09:04:05;1.40;99.90
32187;DHT22;18686;53.084;8.872;2024-01-07T09:06:33;1.50;99.90
32187;DHT22;18686;53.084;8.872;2024-01-07T09:09:01;1.50;99.90
32187;DHT22;18686;53.084;8.872;2024-01-07T09:11:32;1.60;99.90
32187;DHT22;18686;53.084;8.872;2024-01-07T09:14:02;1.60;99.90
32187;DHT22;18686;53.084;8.872;2024-01-07T09:16:31;1.70;99.90
32187;DHT22;18686;53.084;8.872;2024-01-07T09:18:59;1.70;99.90
32187;DHT22;18686;53.084;8.872;2024-01-07T09:21:29;1.90;99.90
32187;DHT22;18686;53.084;8.872;2024-01-07T09:23:57;1.90;99.90
32187;DHT22;18686;53.084;8.872;2024-01-07T09:26:26;2.00;99.90
32187;DHT22;18686;53.084;8.872;2024-01-07T09:28:56;2.10;99.90
32187;DHT22;18686;53.084;8.872;2024-01-07T09:31:25;2.20;99.90
32187;DHT22;18686;53.084;8.872;2024-01-07T09:33:53;2.30;99.90
32187;DHT22;18686;53.084;8.872;2024-01-07T09:36:21;2.40;99.90
32187;DHT22;18686;53.084;8.872;2024-01-07T09:38:58;2.50;99.90
32187;DHT22;18686;53.084;8.872;2024-01-07T09:41:26;2.60;99.90
32187;DHT22;18686;53.084;8.872;2024-01-07T09:43:54;2.70;99.90
32187;DHT22;18686;53.084;8.872;2024-01-07T09:46:29;3.00;99.90
32187;DHT22;18686;53.084;8.872;2024-01-07T09:48:57;3.40;99.90
32187;DHT22;18686;53.084;8.872;2024-01-07T09:51:27;4.10;99.90
32187;DHT22;18686;53.084;8.872;2024-01-07T09:54:02;5.10;99.90
32187;DHT22;18686;53.084;8.872;2024-01-07T09:56:36;6.30;99.90
32187;DHT22;18686;53.084;8.872;2024-01-07T09:59:06;7.80;99.90
32187;DHT22;18686;53.084;8.872;2024-01-07T10:01:35;9.00;99.90
32187;DHT22;18686;53.084;8.872;2024-01-07T10:04:04;9.60;99.90
32187;DHT22;18686;53.084;8.872;2024-01-07T10:06:33;10.50;99.90
32187;DHT22;18686;53.084;8.872;2024-01-07T10:09:03;11.40;99.90
32187;DHT22;18686;53.084;8.872;2024-01-07T10:11:34;12.30;99.90
32187;DHT22;18686;53.084;8.872;2024-01-07T10:14:02;12.80;99.90
32187;DHT22;18686;53.084;8.872;2024-01-07T10:16:30;14.00;99.90
32187;DHT22;18686;53.084;8.872;2024-01-07T10:18:59;14.70;99.90
32187;DHT22;18686;53.084;8.872;2024-01-07T10:21:28;15.20;99.90
32187;DHT22;18686;53.084;8.872;2024-01-07T10:24:09;15.50;99.90
32187;DHT22;18686;53.084;8.872;2024-01-07T10:26:38;15.60;99.90
32187;DHT22;18686;53.084;8.872;2024-01-07T10:29:07;15.70;99.90
32187;DHT22;18686;53.084;8.872;2024-01-07T10:31:38;16.40;99.90
32187;DHT22;18686;53.084;8.872;2024-01-07T10:34:07;16.70;99.90
32187;DHT22;18686;53.084;8.872;2024-01-07T10:36:36;16.80;99.90
32187;DHT22;18686;53.084;8.872;2024-01-07T10:39:05;17.10;99.90
32187;DHT22;18686;53.084;8.872;2024-01-07T10:41:37;17.70;99.90
32187;DHT22;18686;53.084;8.872;2024-01-07T10:44:06;17.70;99.90
32187;DHT22;18686;53.084;8.872;2024-01-07T10:46:34;17.80;99.90
32187;DHT22;18686;53.084;8.872;2024-01-07T10:49:05;17.90;99.90
32187;DHT22;18686;53.084;8.872;2024-01-07T10:51:36;18.60;99.90
32187;DHT22;18686;53.084;8.872;2024-01-07T10:54:05;19.20;99.90
32187;DHT22;18686;53.084;8.872;2024-01-07T10:56:45;19.10;99.90
32187;DHT22;18686;53.084;8.872;2024-01-07T10:59:14;19.50;99.90
32187;DHT22;18686;53.084;8.872;2024-01-07T11:01:43;19.60;99.90
32187;DHT22;18686;53.084;8.872;2024-01-07T11:04:17;20.30;99.90
32187;DHT22;18686;53.084;8.872;2024-01-07T11:06:52;20.70;99.90
32187;DHT22;18686;53.084;8.872;2024-01-07T11:09:28;20.80;99.90
32187;DHT22;18686;53.084;8.872;2024-01-07T11:12:02;20.90;99.90
32187;DHT22;18686;53.084;8.872;2024-01-07T11:14:35;21.20;99.90
32187;DHT22;18686;53.084;8.872;2024-01-07T11:17:04;21.50;99.90
32187;DHT22;18686;53.084;8.872;2024-01-07T11:19:32;21.50;99.90
32187;DHT22;18686;53.084;8.872;2024-01-07T11:22:23;22.10;99.90
32187;DHT22;18686;53.084;8.872;2024-01-07T11:24:52;22.70;99.90
32187;DHT22;18686;53.084;8.872;2024-01-07T11:27:22;22.60;99.90
32187;DHT22;18686;53.084;8.872;2024-01-07T11:29:54;22.40;99.90
32187;DHT22;18686;53.084;8.872;2024-01-07T11:32:23;22.60;99.90
32187;DHT22;18686;53.084;8.872;2024-01-07T11:34:53;22.90;99.90
32187;DHT22;18686;53.084;8.872;2024-01-07T11:37:24;23.00;99.90
32187;DHT22;18686;53.084;8.872;2024-01-07T11:39:56;23.30;99.20
32187;DHT22;18686;53.084;8.872;2024-01-07T11:42:26;22.90;88.90
32187;DHT22;18686;53.084;8.872;2024-01-07T11:44:55;23.00;94.20
32187;DHT22;18686;53.084;8.872;2024-01-07T11:47:24;23.50;97.40
32187;DHT22;18686;53.084;8.872;2024-01-07T11:49:55;23.80;92.80
32187;DHT22;18686;53.084;8.872;2024-01-07T11:52:23;24.10;90.00
32187;DHT22;18686;53.084;8.872;2024-01-07T11:54:51;23.90;76.50
32187;DHT22;18686;53.084;8.872;2024-01-07T11:57:19;24.30;74.60
32187;DHT22;18686;53.084;8.872;2024-01-07T11:59:49;24.80;65.40
32187;DHT22;18686;53.084;8.872;2024-01-07T12:02:19;24.60;71.30
32187;DHT22;18686;53.084;8.872;2024-01-07T12:04:47;24.90;64.80
32187;DHT22;18686;53.084;8.872;2024-01-07T12:07:16;25.30;63.80
32187;DHT22;18686;53.084;8.872;2024-01-07T12:09:45;25.30;62.90
32187;DHT22;18686;53.084;8.872;2024-01-07T12:12:14;25.40;61.80
32187;DHT22;18686;53.084;8.872;2024-01-07T12:14:42;25.50;62.50
32187;DHT22;18686;53.084;8.872;2024-01-07T12:17:12;25.30;57.40
32187;DHT22;18686;53.084;8.872;2024-01-07T12:19:40;25.30;56.60
32187;DHT22;18686;53.084;8.872;2024-01-07T12:22:09;25.40;58.40
32187;DHT22;18686;53.084;8.872;2024-01-07T12:24:37;25.70;56.20
32187;DHT22;18686;53.084;8.872;2024-01-07T12:27:06;24.70;55.80
32187;DHT22;18686;53.084;8.872;2024-01-07T12:29:34;23.80;60.80
32187;DHT22;18686;53.084;8.872;2024-01-07T12:32:04;22.90;59.90
32187;DHT22;18686;53.084;8.872;2024-01-07T12:34:35;21.90;58.70
32187;DHT22;18686;53.084;8.872;2024-01-07T12:37:04;20.60;64.00
32187;DHT22;18686;53.084;8.872;2024-01-07T12:39:32;19.80;63.30
32187;DHT22;18686;53.084;8.872;2024-01-07T12:42:01;19.60;62.10
32187;DHT22;18686;53.084;8.872;2024-01-07T12:44:30;20.00;64.30
32187;DHT22;18686;53.084;8.872;2024-01-07T12:46:58;20.90;59.70
32187;DHT22;18686;53.084;8.872;2024-01-07T12:49:28;21.80;59.30
32187;DHT22;18686;53.084;8.872;2024-01-07T12:51:58;22.40;54.80
32187;DHT22;18686;53.084;8.872;2024-01-07T12:54:26;22.50;59.10
32187;DHT22;18686;53.084;8.872;2024-01-07T12:56:54;22.60;58.40
32187;DHT22;18686;53.084;8.872;2024-01-07T12:59:23;22.80;57.30
32187;DHT22;18686;53.084;8.872;2024-01-07T13:01:51;22.90;58.20
32187;DHT22;18686;53.084;8.872;2024-01-07T13:04:19;23.10;55.80
32187;DHT22;18686;53.084;8.872;2024-01-07T13:06:49;23.70;52.20
32187;DHT22;18686;53.084;8.872;2024-01-07T13:09:19;24.20;52.60
32187;DHT22;18686;53.084;8.872;2024-01-07T13:11:47;24.30;51.50
32187;DHT22;18686;53.084;8.872;2024-01-07T13:14:15;24.20;53.10
32187;DHT22;18686;53.084;8.872;2024-01-07T13:16:45;24.30;53.90
32187;DHT22;18686;53.084;8.872;2024-01-07T13:19:13;24.50;51.00
32187;DHT22;18686;53.084;8.872;2024-01-07T13:21:41;24.60;50.70
32187;DHT22;18686;53.084;8.872;2024-01-07T13:24:10;24.70;51.00
32187;DHT22;18686;53.084;8.872;2024-01-07T13:26:39;24.20;51.20
32187;DHT22;18686;53.084;8.872;2024-01-07T13:29:09;24.20;49.10
32187;DHT22;18686;53.084;8.872;2024-01-07T13:31:37;24.00;48.60
32187;DHT22;18686;53.084;8.872;2024-01-07T13:34:05;24.00;50.10
32187;DHT22;18686;53.084;8.872;2024-01-07T13:36:34;24.20;47.40
32187;DHT22;18686;53.084;8.872;2024-01-07T13:39:03;24.50;42.90
32187;DHT22;18686;53.084;8.872;2024-01-07T13:41:34;24.20;47.60
32187;DHT22;18686;53.084;8.872;2024-01-07T13:44:04;24.30;44.70
32187;DHT22;18686;53.084;8.872;2024-01-07T13:46:34;24.40;46.40
32187;DHT22;18686;53.084;8.872;2024-01-07T13:49:02;24.30;47.20
32187;DHT22;18686;53.084;8.872;2024-01-07T13:51:32;24.00;45.90
32187;DHT22;18686;53.084;8.872;2024-01-07T13:54:00;24.00;43.40
32187;DHT22;18686;53.084;8.872;2024-01-07T13:56:29;23.80;43.00
32187;DHT22;18686;53.084;8.872;2024-01-07T13:58:58;23.90;43.30
32187;DHT22;18686;53.084;8.872;2024-01-07T14:01:27;23.80;43.90
32187;DHT22;18686;53.084;8.872;2024-01-07T14:03:56;23.00;46.80
32187;DHT22;18686;53.084;8.872;2024-01-07T14:06:24;21.30;50.20
32187;DHT22;18686;53.084;8.872;2024-01-07T14:08:53;19.30;48.80
32187;DHT22;18686;53.084;8.872;2024-01-07T14:11:21;17.40;52.50
32187;DHT22;18686;53.084;8.872;2024-01-07T14:13:49;15.70;59.30
32187;DHT22;18686;53.084;8.872;2024-01-07T14:16:18;14.40;62.70
32187;DHT22;18686;53.084;8.872;2024-01-07T14:18:47;13.20;65.10
32187;DHT22;18686;53.084;8.872;2024-01-07T14:21:16;11.90;67.70
32187;DHT22;18686;53.084;8.872;2024-01-07T14:23:44;10.80;70.20
32187;DHT22;18686;53.084;8.872;2024-01-07T14:26:12;9.70;73.00
32187;DHT22;18686;53.084;8.872;2024-01-07T14:28:41;8.90;76.00
32187;DHT22;18686;53.084;8.872;2024-01-07T14:31:10;8.30;85.00
32187;DHT22;18686;53.084;8.872;2024-01-07T14:33:38;8.00;89.30
32187;DHT22;18686;53.084;8.872;2024-01-07T14:36:09;7.90;87.90
32187;DHT22;18686;53.084;8.872;2024-01-07T14:38:43;8.20;85.80
32187;DHT22;18686;53.084;8.872;2024-01-07T14:41:13;8.50;84.70
32187;DHT22;18686;53.084;8.872;2024-01-07T14:43:41;8.70;83.00
32187;DHT22;18686;53.084;8.872;2024-01-07T14:46:09;8.60;78.10
32187;DHT22;18686;53.084;8.872;2024-01-07T14:48:38;8.60;84.00
32187;DHT22;18686;53.084;8.872;2024-01-07T14:51:06;8.40;84.20
32187;DHT22;18686;53.084;8.872;2024-01-07T14:53:36;8.00;89.50
32187;DHT22;18686;53.084;8.872;2024-01-07T14:56:05;7.50;90.30
32187;DHT22;18686;53.084;8.872;2024-01-07T14:58:33;7.00;91.80
32187;DHT22;18686;53.084;8.872;2024-01-07T15:01:01;6.60;92.90
32187;DHT22;18686;53.084;8.872;2024-01-07T15:03:31;6.20;95.00
32187;DHT22;18686;53.084;8.872;2024-01-07T15:05:59;5.70;95.10
32187;DHT22;18686;53.084;8.872;2024-01-07T15:08:28;5.10;96.30
32187;DHT22;18686;53.084;8.872;2024-01-07T15:10:57;4.50;97.60
32187;DHT22;18686;53.084;8.872;2024-01-07T15:13:26;4.10;99.90
32187;DHT22;18686;53.084;8.872;2024-01-07T15:15:56;3.60;99.90
32187;DHT22;18686;53.084;8.872;2024-01-07T15:18:24;3.20;99.90
32187;DHT22;18686;53.084;8.872;2024-01-07T15:20:52;2.90;99.90
32187;DHT22;18686;53.084;8.872;2024-01-07T15:23:21;2.60;99.90
32187;DHT22;18686;53.084;8.872;2024-01-07T15:25:49;2.20;99.90
32187;DHT22;18686;53.084;8.872;2024-01-07T15:28:19;2.00;99.90
32187;DHT22;18686;53.084;8.872;2024-01-07T15:30:47;1.70;99.90
32187;DHT22;18686;53.084;8.872;2024-01-07T15:33:15;1.50;99.90
32187;DHT22;18686;53.084;8.872;2024-01-07T15:35:44;1.40;99.90
32187;DHT22;18686;53.084;8.872;2024-01-07T15:38:12;1.30;99.90
32187;DHT22;18686;53.084;8.872;2024-01-07T15:40:40;1.10;99.90
32187;DHT22;18686;53.084;8.872;2024-01-07T15:43:09;0.90;99.90
32187;DHT22;18686;53.084;8.872;2024-01-07T15:45:41;0.80;99.90
32187;DHT22;18686;53.084;8.872;2024-01-07T15:48:09;0.60;99.90
32187;DHT22;18686;53.084;8.872;2024-01-07T15:50:38;0.50;99.90